sensor_id;sensor_type;location;lat;lon;timestamp;P1;durP1;ratioP1;P2;durP2;ratioP2
40052;SDS011;25758;48.200;16.338;2022-10-16T00:00:17;61.38;;;39.42;;
40052;SDS011;25758;48.200;16.338;2022-10-16T00:02:42;60.20;;;41.40;;
40052;SDS011;25758;48.200;16.338;2022-10-16T00:05:08;69.80;;;41.28;;
40052;SDS011;25758;48.200;16.338;2022-10-16T00:07:33;64.88;;;40.53;;
40052;SDS011;25758;48.200;16.338;2022-10-16T00:09:59;57.65;;;40.22;;
40052;SDS011;25758;48.200;16.338;2022-10-16T00:12:25;65.03;;;39.58;;
40052;SDS011;25758;48.200;16.338;2022-10-16T00:14:50;63.85;;;41.90;;
40052;SDS011;25758;48.200;16.338;2022-10-16T00:17:16;63.13;;;40.67;;
40052;SDS011;25758;48.200;16.338;2022-10-16T00:19:42;63.00;;;42.30;;
40052;SDS011;25758;48.200;16.338;2022-10-16T00:22:08;62.80;;;42.60;;
40052;SDS011;25758;48.200;16.338;2022-10-16T00:24:33;65.85;;;42.35;;
40052;SDS011;25758;48.200;16.338;2022-10-16T00:26:59;65.15;;;41.33;;
40052;SDS011;25758;48.200;16.338;2022-10-16T00:29:24;62.33;;;41.20;;
40052;SDS011;25758;48.200;16.338;2022-10-16T00:31:50;66.15;;;43.42;;
40052;SDS011;25758;48.200;16.338;2022-10-16T00:34:16;63.45;;;42.53;;
40052;SDS011;25758;48.200;16.338;2022-10-16T00:36:41;64.63;;;41.00;;
40052;SDS011;25758;48.200;16.338;2022-10-16T00:39:07;68.70;;;41.15;;
40052;SDS011;25758;48.200;16.338;2022-10-16T00:41:33;68.20;;;42.55;;
40052;SDS011;25758;48.200;16.338;2022-10-16T00:44:00;64.88;;;40.45;;
40052;SDS011;25758;48.200;16.338;2022-10-16T00:49:01;70.30;;;41.38;;
40052;SDS011;25758;48.200;16.338;2022-10-16T00:51:30;62.78;;;40.20;;
40052;SDS011;25758;48.200;16.338;2022-10-16T00:54:04;59.75;;;40.20;;
40052;SDS011;25758;48.200;16.338;2022-10-16T00:56:33;65.53;;;41.13;;
40052;SDS011;25758;48.200;16.338;2022-10-16T00:58:59;64.22;;;40.97;;
40052;SDS011;25758;48.200;16.338;2022-10-16T01:01:28;66.38;;;40.25;;
40052;SDS011;25758;48.200;16.338;2022-10-16T01:03:54;64.25;;;39.25;;
40052;SDS011;25758;48.200;16.338;2022-10-16T01:06:24;63.22;;;39.65;;
40052;SDS011;25758;48.200;16.338;2022-10-16T01:09:17;56.58;;;38.17;;
40052;SDS011;25758;48.200;16.338;2022-10-16T01:12:06;57.60;;;37.08;;
40052;SDS011;25758;48.200;16.338;2022-10-16T01:17:07;58.25;;;37.25;;
40052;SDS011;25758;48.200;16.338;2022-10-16T01:22:09;53.25;;;35.83;;
40052;SDS011;25758;48.200;16.338;2022-10-16T01:24:38;50.08;;;34.45;;
40052;SDS011;25758;48.200;16.338;2022-10-16T01:37:51;50.08;;;33.80;;
40052;SDS011;25758;48.200;16.338;2022-10-16T01:40:44;46.70;;;32.17;;
40052;SDS011;25758;48.200;16.338;2022-10-16T01:43:17;45.97;;;33.67;;
40052;SDS011;25758;48.200;16.338;2022-10-16T01:45:47;49.00;;;33.97;;
40052;SDS011;25758;48.200;16.338;2022-10-16T01:48:16;53.35;;;35.88;;
40052;SDS011;25758;48.200;16.338;2022-10-16T01:50:44;48.78;;;33.45;;
40052;SDS011;25758;48.200;16.338;2022-10-16T01:53:35;52.00;;;34.97;;
40052;SDS011;25758;48.200;16.338;2022-10-16T01:56:02;50.70;;;34.15;;
40052;SDS011;25758;48.200;16.338;2022-10-16T01:58:30;56.38;;;34.85;;
40052;SDS011;25758;48.200;16.338;2022-10-16T02:01:02;50.20;;;33.70;;
40052;SDS011;25758;48.200;16.338;2022-10-16T02:03:29;65.47;;;39.03;;
40052;SDS011;25758;48.200;16.338;2022-10-16T02:05:57;57.13;;;37.38;;
40052;SDS011;25758;48.200;16.338;2022-10-16T02:08:24;51.13;;;36.08;;
40052;SDS011;25758;48.200;16.338;2022-10-16T02:10:57;48.28;;;34.75;;
40052;SDS011;25758;48.200;16.338;2022-10-16T02:13:33;47.25;;;34.28;;
40052;SDS011;25758;48.200;16.338;2022-10-16T02:16:07;49.00;;;32.88;;
40052;SDS011;25758;48.200;16.338;2022-10-16T02:18:34;49.08;;;32.53;;
40052;SDS011;25758;48.200;16.338;2022-10-16T02:26:25;49.25;;;34.03;;
40052;SDS011;25758;48.200;16.338;2022-10-16T02:28:56;49.40;;;33.53;;
40052;SDS011;25758;48.200;16.338;2022-10-16T02:31:30;40.55;;;30.48;;
40052;SDS011;25758;48.200;16.338;2022-10-16T02:33:59;45.28;;;32.83;;
40052;SDS011;25758;48.200;16.338;2022-10-16T02:36:27;45.75;;;31.08;;
40052;SDS011;25758;48.200;16.338;2022-10-16T02:38:54;45.92;;;31.67;;
40052;SDS011;25758;48.200;16.338;2022-10-16T02:41:21;47.47;;;31.60;;
40052;SDS011;25758;48.200;16.338;2022-10-16T02:43:48;43.08;;;31.30;;
40052;SDS011;25758;48.200;16.338;2022-10-16T02:46:14;39.97;;;30.35;;
40052;SDS011;25758;48.200;16.338;2022-10-16T02:48:40;44.55;;;30.73;;
40052;SDS011;25758;48.200;16.338;2022-10-16T02:51:06;41.50;;;30.55;;
40052;SDS011;25758;48.200;16.338;2022-10-16T02:53:31;38.15;;;29.17;;
40052;SDS011;25758;48.200;16.338;2022-10-16T02:55:57;40.45;;;29.40;;
40052;SDS011;25758;48.200;16.338;2022-10-16T02:58:22;42.00;;;30.65;;
40052;SDS011;25758;48.200;16.338;2022-10-16T03:00:48;42.78;;;30.88;;
40052;SDS011;25758;48.200;16.338;2022-10-16T03:03:14;38.00;;;28.48;;
40052;SDS011;25758;48.200;16.338;2022-10-16T03:05:39;43.78;;;30.95;;
40052;SDS011;25758;48.200;16.338;2022-10-16T03:08:05;40.53;;;29.27;;
40052;SDS011;25758;48.200;16.338;2022-10-16T03:10:31;35.92;;;27.33;;
40052;SDS011;25758;48.200;16.338;2022-10-16T03:12:56;35.88;;;26.42;;
40052;SDS011;25758;48.200;16.338;2022-10-16T03:15:22;38.83;;;27.38;;
40052;SDS011;25758;48.200;16.338;2022-10-16T03:17:47;34.83;;;26.85;;
40052;SDS011;25758;48.200;16.338;2022-10-16T03:20:13;35.17;;;26.00;;
40052;SDS011;25758;48.200;16.338;2022-10-16T03:22:39;37.40;;;27.13;;
40052;SDS011;25758;48.200;16.338;2022-10-16T03:25:04;39.58;;;27.83;;
40052;SDS011;25758;48.200;16.338;2022-10-16T03:27:30;36.70;;;26.58;;
40052;SDS011;25758;48.200;16.338;2022-10-16T03:29:56;36.45;;;27.58;;
40052;SDS011;25758;48.200;16.338;2022-10-16T03:32:21;37.28;;;27.52;;
40052;SDS011;25758;48.200;16.338;2022-10-16T03:34:49;38.25;;;26.35;;
40052;SDS011;25758;48.200;16.338;2022-10-16T03:37:15;35.35;;;26.75;;
40052;SDS011;25758;48.200;16.338;2022-10-16T03:39:41;37.40;;;27.30;;
40052;SDS011;25758;48.200;16.338;2022-10-16T03:42:06;35.78;;;26.90;;
40052;SDS011;25758;48.200;16.338;2022-10-16T03:44:32;36.22;;;25.90;;
40052;SDS011;25758;48.200;16.338;2022-10-16T03:46:57;38.75;;;27.15;;
40052;SDS011;25758;48.200;16.338;2022-10-16T03:49:23;36.90;;;25.92;;
40052;SDS011;25758;48.200;16.338;2022-10-16T03:51:49;33.65;;;26.42;;
40052;SDS011;25758;48.200;16.338;2022-10-16T03:54:14;34.53;;;25.85;;
40052;SDS011;25758;48.200;16.338;2022-10-16T03:56:40;34.70;;;25.13;;
40052;SDS011;25758;48.200;16.338;2022-10-16T03:59:06;34.63;;;26.02;;
40052;SDS011;25758;48.200;16.338;2022-10-16T04:01:31;33.10;;;23.83;;
40052;SDS011;25758;48.200;16.338;2022-10-16T04:03:57;30.75;;;24.23;;
40052;SDS011;25758;48.200;16.338;2022-10-16T04:06:22;32.55;;;24.95;;
40052;SDS011;25758;48.200;16.338;2022-10-16T04:08:48;31.95;;;24.55;;
40052;SDS011;25758;48.200;16.338;2022-10-16T04:11:14;40.90;;;26.77;;
40052;SDS011;25758;48.200;16.338;2022-10-16T04:13:40;32.60;;;25.55;;
40052;SDS011;25758;48.200;16.338;2022-10-16T04:16:06;33.90;;;26.02;;
40052;SDS011;25758;48.200;16.338;2022-10-16T04:18:32;37.72;;;26.58;;
40052;SDS011;25758;48.200;16.338;2022-10-16T04:21:01;33.83;;;25.10;;
40052;SDS011;25758;48.200;16.338;2022-10-16T04:23:28;38.03;;;26.63;;
40052;SDS011;25758;48.200;16.338;2022-10-16T04:25:53;37.45;;;26.42;;
40052;SDS011;25758;48.200;16.338;2022-10-16T04:28:19;43.53;;;29.45;;
40052;SDS011;25758;48.200;16.338;2022-10-16T04:30:45;46.65;;;28.92;;
40052;SDS011;25758;48.200;16.338;2022-10-16T04:33:10;43.42;;;29.52;;
40052;SDS011;25758;48.200;16.338;2022-10-16T04:35:37;53.05;;;30.15;;
40052;SDS011;25758;48.200;16.338;2022-10-16T04:38:03;73.40;;;30.42;;
40052;SDS011;25758;48.200;16.338;2022-10-16T04:40:29;85.50;;;30.38;;
40052;SDS011;25758;48.200;16.338;2022-10-16T04:42:57;72.45;;;29.73;;
40052;SDS011;25758;48.200;16.338;2022-10-16T04:45:23;66.57;;;28.88;;
40052;SDS011;25758;48.200;16.338;2022-10-16T04:47:49;44.97;;;25.90;;
40052;SDS011;25758;48.200;16.338;2022-10-16T04:50:15;55.90;;;26.00;;
40052;SDS011;25758;48.200;16.338;2022-10-16T04:52:41;47.55;;;27.10;;
40052;SDS011;25758;48.200;16.338;2022-10-16T04:55:06;47.63;;;25.75;;
40052;SDS011;25758;48.200;16.338;2022-10-16T04:57:32;73.70;;;25.42;;
40052;SDS011;25758;48.200;16.338;2022-10-16T04:59:58;37.67;;;23.88;;
40052;SDS011;25758;48.200;16.338;2022-10-16T05:02:24;33.55;;;22.70;;
40052;SDS011;25758;48.200;16.338;2022-10-16T05:04:50;37.78;;;23.83;;
40052;SDS011;25758;48.200;16.338;2022-10-16T05:07:16;38.55;;;24.33;;
40052;SDS011;25758;48.200;16.338;2022-10-16T05:09:42;39.45;;;23.52;;
40052;SDS011;25758;48.200;16.338;2022-10-16T05:12:07;41.38;;;25.13;;
40052;SDS011;25758;48.200;16.338;2022-10-16T05:14:33;39.35;;;23.42;;
40052;SDS011;25758;48.200;16.338;2022-10-16T05:16:59;38.85;;;23.00;;
40052;SDS011;25758;48.200;16.338;2022-10-16T05:19:25;40.67;;;23.65;;
40052;SDS011;25758;48.200;16.338;2022-10-16T05:21:51;39.20;;;22.13;;
40052;SDS011;25758;48.200;16.338;2022-10-16T05:24:16;41.38;;;24.67;;
40052;SDS011;25758;48.200;16.338;2022-10-16T05:26:42;40.47;;;23.27;;
40052;SDS011;25758;48.200;16.338;2022-10-16T05:29:08;37.95;;;20.33;;
40052;SDS011;25758;48.200;16.338;2022-10-16T05:31:34;81.72;;;23.70;;
40052;SDS011;25758;48.200;16.338;2022-10-16T05:34:00;41.67;;;22.83;;
40052;SDS011;25758;48.200;16.338;2022-10-16T05:36:26;45.83;;;26.00;;
40052;SDS011;25758;48.200;16.338;2022-10-16T05:38:53;44.22;;;27.10;;
40052;SDS011;25758;48.200;16.338;2022-10-16T05:41:19;64.00;;;25.75;;
40052;SDS011;25758;48.200;16.338;2022-10-16T05:43:46;37.75;;;23.75;;
40052;SDS011;25758;48.200;16.338;2022-10-16T05:46:12;54.90;;;23.30;;
40052;SDS011;25758;48.200;16.338;2022-10-16T05:48:38;33.33;;;22.98;;
40052;SDS011;25758;48.200;16.338;2022-10-16T05:51:09;58.80;;;22.48;;
40052;SDS011;25758;48.200;16.338;2022-10-16T05:53:36;32.35;;;21.63;;
40052;SDS011;25758;48.200;16.338;2022-10-16T05:56:03;35.03;;;22.65;;
40052;SDS011;25758;48.200;16.338;2022-10-16T05:58:39;29.75;;;20.58;;
40052;SDS011;25758;48.200;16.338;2022-10-16T06:01:13;32.88;;;21.83;;
40052;SDS011;25758;48.200;16.338;2022-10-16T06:03:40;33.38;;;21.67;;
40052;SDS011;25758;48.200;16.338;2022-10-16T06:06:07;37.55;;;23.00;;
40052;SDS011;25758;48.200;16.338;2022-10-16T06:08:37;35.70;;;22.98;;
40052;SDS011;25758;48.200;16.338;2022-10-16T06:11:03;44.85;;;25.83;;
40052;SDS011;25758;48.200;16.338;2022-10-16T06:13:31;43.67;;;26.20;;
40052;SDS011;25758;48.200;16.338;2022-10-16T06:15:57;44.50;;;27.73;;
40052;SDS011;25758;48.200;16.338;2022-10-16T06:18:24;48.55;;;27.70;;
40052;SDS011;25758;48.200;16.338;2022-10-16T06:20:51;51.08;;;29.05;;
40052;SDS011;25758;48.200;16.338;2022-10-16T06:23:17;47.63;;;27.58;;
40052;SDS011;25758;48.200;16.338;2022-10-16T06:25:43;51.58;;;29.25;;
40052;SDS011;25758;48.200;16.338;2022-10-16T06:28:08;51.72;;;27.88;;
40052;SDS011;25758;48.200;16.338;2022-10-16T06:30:34;59.33;;;30.50;;
40052;SDS011;25758;48.200;16.338;2022-10-16T06:33:00;71.85;;;28.85;;
40052;SDS011;25758;48.200;16.338;2022-10-16T06:35:25;44.40;;;28.88;;
40052;SDS011;25758;48.200;16.338;2022-10-16T06:37:52;45.80;;;29.27;;
40052;SDS011;25758;48.200;16.338;2022-10-16T06:40:18;47.80;;;29.38;;
40052;SDS011;25758;48.200;16.338;2022-10-16T06:42:44;45.00;;;27.60;;
40052;SDS011;25758;48.200;16.338;2022-10-16T06:45:10;105.07;;;31.80;;
40052;SDS011;25758;48.200;16.338;2022-10-16T06:47:35;46.13;;;30.13;;
40052;SDS011;25758;48.200;16.338;2022-10-16T06:50:01;44.08;;;31.75;;
40052;SDS011;25758;48.200;16.338;2022-10-16T06:52:28;52.50;;;32.25;;
40052;SDS011;25758;48.200;16.338;2022-10-16T06:54:54;85.78;;;32.80;;
40052;SDS011;25758;48.200;16.338;2022-10-16T06:57:19;62.05;;;33.88;;
40052;SDS011;25758;48.200;16.338;2022-10-16T06:59:45;69.68;;;34.00;;
40052;SDS011;25758;48.200;16.338;2022-10-16T07:02:11;73.63;;;33.03;;
40052;SDS011;25758;48.200;16.338;2022-10-16T07:04:36;65.85;;;33.30;;
40052;SDS011;25758;48.200;16.338;2022-10-16T07:07:02;56.13;;;33.95;;
40052;SDS011;25758;48.200;16.338;2022-10-16T07:09:28;70.43;;;37.70;;
40052;SDS011;25758;48.200;16.338;2022-10-16T07:11:53;64.72;;;37.35;;
40052;SDS011;25758;48.200;16.338;2022-10-16T07:14:20;111.57;;;52.20;;
40052;SDS011;25758;48.200;16.338;2022-10-16T07:16:46;104.55;;;45.78;;
40052;SDS011;25758;48.200;16.338;2022-10-16T07:19:13;55.75;;;37.75;;
40052;SDS011;25758;48.200;16.338;2022-10-16T07:21:40;67.15;;;36.40;;
40052;SDS011;25758;48.200;16.338;2022-10-16T07:24:10;57.53;;;37.05;;
40052;SDS011;25758;48.200;16.338;2022-10-16T07:26:38;61.75;;;36.78;;
40052;SDS011;25758;48.200;16.338;2022-10-16T07:29:06;61.90;;;35.25;;
40052;SDS011;25758;48.200;16.338;2022-10-16T07:31:36;57.95;;;36.35;;
40052;SDS011;25758;48.200;16.338;2022-10-16T07:34:01;57.30;;;35.15;;
40052;SDS011;25758;48.200;16.338;2022-10-16T07:36:27;55.35;;;36.67;;
40052;SDS011;25758;48.200;16.338;2022-10-16T07:38:53;64.38;;;37.75;;
40052;SDS011;25758;48.200;16.338;2022-10-16T07:41:19;53.78;;;35.13;;
40052;SDS011;25758;48.200;16.338;2022-10-16T07:43:48;57.60;;;39.35;;
40052;SDS011;25758;48.200;16.338;2022-10-16T07:46:15;71.53;;;38.92;;
40052;SDS011;25758;48.200;16.338;2022-10-16T07:48:42;71.05;;;37.47;;
40052;SDS011;25758;48.200;16.338;2022-10-16T07:51:11;107.68;;;36.30;;
40052;SDS011;25758;48.200;16.338;2022-10-16T07:53:37;79.88;;;37.65;;
40052;SDS011;25758;48.200;16.338;2022-10-16T07:56:03;86.28;;;40.58;;
40052;SDS011;25758;48.200;16.338;2022-10-16T07:58:31;85.47;;;40.92;;
40052;SDS011;25758;48.200;16.338;2022-10-16T08:00:58;81.35;;;39.13;;
40052;SDS011;25758;48.200;16.338;2022-10-16T08:03:24;59.78;;;39.33;;
40052;SDS011;25758;48.200;16.338;2022-10-16T08:05:50;64.82;;;36.10;;
40052;SDS011;25758;48.200;16.338;2022-10-16T08:08:17;80.30;;;39.40;;
40052;SDS011;25758;48.200;16.338;2022-10-16T08:10:43;67.15;;;38.10;;
40052;SDS011;25758;48.200;16.338;2022-10-16T08:13:09;80.38;;;40.60;;
40052;SDS011;25758;48.200;16.338;2022-10-16T08:15:35;62.03;;;38.72;;
40052;SDS011;25758;48.200;16.338;2022-10-16T08:18:01;70.60;;;40.60;;
40052;SDS011;25758;48.200;16.338;2022-10-16T08:20:29;75.38;;;42.00;;
40052;SDS011;25758;48.200;16.338;2022-10-16T08:22:55;69.10;;;39.75;;
40052;SDS011;25758;48.200;16.338;2022-10-16T08:25:22;59.67;;;37.83;;
40052;SDS011;25758;48.200;16.338;2022-10-16T08:27:49;56.08;;;37.15;;
40052;SDS011;25758;48.200;16.338;2022-10-16T08:30:15;58.03;;;36.70;;
40052;SDS011;25758;48.200;16.338;2022-10-16T08:32:45;55.72;;;35.95;;
40052;SDS011;25758;48.200;16.338;2022-10-16T08:35:11;58.20;;;37.63;;
40052;SDS011;25758;48.200;16.338;2022-10-16T08:37:38;53.50;;;37.78;;
40052;SDS011;25758;48.200;16.338;2022-10-16T08:40:05;56.38;;;36.53;;
40052;SDS011;25758;48.200;16.338;2022-10-16T08:50:51;52.55;;;35.80;;
40052;SDS011;25758;48.200;16.338;2022-10-16T08:53:24;55.00;;;34.70;;
40052;SDS011;25758;48.200;16.338;2022-10-16T08:56:04;46.92;;;33.08;;
40052;SDS011;25758;48.200;16.338;2022-10-16T08:58:30;49.60;;;35.28;;
40052;SDS011;25758;48.200;16.338;2022-10-16T09:00:57;48.50;;;34.58;;
40052;SDS011;25758;48.200;16.338;2022-10-16T09:25:29;42.15;;;31.92;;
40052;SDS011;25758;48.200;16.338;2022-10-16T09:27:55;48.00;;;34.78;;
40052;SDS011;25758;48.200;16.338;2022-10-16T09:30:21;43.55;;;32.72;;
40052;SDS011;25758;48.200;16.338;2022-10-16T09:32:49;45.33;;;33.30;;
40052;SDS011;25758;48.200;16.338;2022-10-16T09:35:19;47.03;;;33.42;;
40052;SDS011;25758;48.200;16.338;2022-10-16T09:37:49;43.97;;;32.70;;
40052;SDS011;25758;48.200;16.338;2022-10-16T09:40:26;41.95;;;32.15;;
40052;SDS011;25758;48.200;16.338;2022-10-16T09:43:09;43.45;;;32.63;;
40052;SDS011;25758;48.200;16.338;2022-10-16T09:46:07;44.35;;;33.30;;
40052;SDS011;25758;48.200;16.338;2022-10-16T09:48:49;42.58;;;32.38;;
40052;SDS011;25758;48.200;16.338;2022-10-16T09:53:53;45.00;;;32.30;;
40052;SDS011;25758;48.200;16.338;2022-10-16T09:56:24;43.50;;;33.30;;
40052;SDS011;25758;48.200;16.338;2022-10-16T09:58:51;44.90;;;32.90;;
40052;SDS011;25758;48.200;16.338;2022-10-16T10:01:22;40.60;;;31.15;;
40052;SDS011;25758;48.200;16.338;2022-10-16T10:04:01;41.25;;;31.95;;
40052;SDS011;25758;48.200;16.338;2022-10-16T10:06:33;43.55;;;31.88;;
40052;SDS011;25758;48.200;16.338;2022-10-16T10:17:07;42.85;;;32.40;;
40052;SDS011;25758;48.200;16.338;2022-10-16T10:19:40;40.03;;;30.92;;
40052;SDS011;25758;48.200;16.338;2022-10-16T10:22:19;42.63;;;31.67;;
40052;SDS011;25758;48.200;16.338;2022-10-16T10:24:59;42.38;;;30.40;;
40052;SDS011;25758;48.200;16.338;2022-10-16T10:27:57;41.65;;;31.98;;
40052;SDS011;25758;48.200;16.338;2022-10-16T10:41:07;43.47;;;31.98;;
40052;SDS011;25758;48.200;16.338;2022-10-16T10:47:01;43.20;;;31.95;;
40052;SDS011;25758;48.200;16.338;2022-10-16T10:49:20;44.80;;;31.58;;
40052;SDS011;25758;48.200;16.338;2022-10-16T10:53:05;45.60;;;31.92;;
40052;SDS011;25758;48.200;16.338;2022-10-16T10:55:06;42.85;;;32.50;;
40052;SDS011;25758;48.200;16.338;2022-10-16T11:11:35;43.70;;;32.47;;
40052;SDS011;25758;48.200;16.338;2022-10-16T11:14:16;44.70;;;33.30;;
40052;SDS011;25758;48.200;16.338;2022-10-16T11:22:01;43.53;;;32.22;;
40052;SDS011;25758;48.200;16.338;2022-10-16T11:27:45;44.53;;;32.58;;
40052;SDS011;25758;48.200;16.338;2022-10-16T11:30:25;45.03;;;32.60;;
40052;SDS011;25758;48.200;16.338;2022-10-16T11:40:53;41.97;;;30.60;;
40052;SDS011;25758;48.200;16.338;2022-10-16T11:43:34;39.80;;;30.15;;
40052;SDS011;25758;48.200;16.338;2022-10-16T11:46:13;41.40;;;30.58;;
40052;SDS011;25758;48.200;16.338;2022-10-16T11:48:44;39.38;;;31.23;;
40052;SDS011;25758;48.200;16.338;2022-10-16T11:51:14;45.88;;;32.83;;
40052;SDS011;25758;48.200;16.338;2022-10-16T11:56:46;40.08;;;30.58;;
40052;SDS011;25758;48.200;16.338;2022-10-16T11:59:21;43.42;;;33.25;;
40052;SDS011;25758;48.200;16.338;2022-10-16T12:02:25;45.83;;;32.95;;
40052;SDS011;25758;48.200;16.338;2022-10-16T12:05:03;47.35;;;33.42;;
40052;SDS011;25758;48.200;16.338;2022-10-16T12:10:34;50.28;;;33.25;;
40052;SDS011;25758;48.200;16.338;2022-10-16T12:13:26;45.63;;;31.25;;
40052;SDS011;25758;48.200;16.338;2022-10-16T12:16:19;42.42;;;32.38;;
40052;SDS011;25758;48.200;16.338;2022-10-16T12:18:46;42.13;;;31.95;;
40052;SDS011;25758;48.200;16.338;2022-10-16T12:21:14;50.20;;;34.20;;
40052;SDS011;25758;48.200;16.338;2022-10-16T12:23:48;43.00;;;32.88;;
40052;SDS011;25758;48.200;16.338;2022-10-16T12:26:26;42.40;;;30.77;;
40052;SDS011;25758;48.200;16.338;2022-10-16T12:28:53;43.50;;;32.47;;
40052;SDS011;25758;48.200;16.338;2022-10-16T12:31:20;40.83;;;31.50;;
40052;SDS011;25758;48.200;16.338;2022-10-16T12:33:57;45.25;;;35.28;;
40052;SDS011;25758;48.200;16.338;2022-10-16T12:36:26;43.30;;;32.28;;
40052;SDS011;25758;48.200;16.338;2022-10-16T12:38:55;42.72;;;33.63;;
40052;SDS011;25758;48.200;16.338;2022-10-16T12:41:30;45.63;;;32.85;;
40052;SDS011;25758;48.200;16.338;2022-10-16T12:43:58;44.10;;;33.35;;
40052;SDS011;25758;48.200;16.338;2022-10-16T12:51:39;44.50;;;33.45;;
40052;SDS011;25758;48.200;16.338;2022-10-16T13:07:48;45.63;;;33.05;;
40052;SDS011;25758;48.200;16.338;2022-10-16T13:10:31;45.38;;;33.70;;
40052;SDS011;25758;48.200;16.338;2022-10-16T13:15:46;39.40;;;32.33;;
40052;SDS011;25758;48.200;16.338;2022-10-16T13:18:28;40.45;;;31.92;;
40052;SDS011;25758;48.200;16.338;2022-10-16T13:21:14;44.83;;;33.55;;
40052;SDS011;25758;48.200;16.338;2022-10-16T13:23:46;43.58;;;33.72;;
40052;SDS011;25758;48.200;16.338;2022-10-16T13:29:35;42.38;;;34.05;;
40052;SDS011;25758;48.200;16.338;2022-10-16T13:32:01;42.75;;;34.08;;
40052;SDS011;25758;48.200;16.338;2022-10-16T13:34:41;45.35;;;34.47;;
40052;SDS011;25758;48.200;16.338;2022-10-16T13:37:19;44.20;;;32.90;;
40052;SDS011;25758;48.200;16.338;2022-10-16T13:39:46;42.40;;;32.42;;
40052;SDS011;25758;48.200;16.338;2022-10-16T13:42:30;40.40;;;32.28;;
40052;SDS011;25758;48.200;16.338;2022-10-16T13:44:58;45.40;;;33.63;;
40052;SDS011;25758;48.200;16.338;2022-10-16T13:47:24;44.97;;;33.90;;
40052;SDS011;25758;48.200;16.338;2022-10-16T13:52:34;42.50;;;34.72;;
40052;SDS011;25758;48.200;16.338;2022-10-16T13:54:59;43.97;;;32.78;;
40052;SDS011;25758;48.200;16.338;2022-10-16T13:57:25;46.38;;;34.65;;
40052;SDS011;25758;48.200;16.338;2022-10-16T13:59:51;42.88;;;33.15;;
40052;SDS011;25758;48.200;16.338;2022-10-16T14:04:59;49.33;;;36.70;;
40052;SDS011;25758;48.200;16.338;2022-10-16T14:07:31;43.85;;;34.35;;
40052;SDS011;25758;48.200;16.338;2022-10-16T14:10:03;41.55;;;33.90;;
40052;SDS011;25758;48.200;16.338;2022-10-16T14:12:45;39.97;;;32.63;;
40052;SDS011;25758;48.200;16.338;2022-10-16T14:17:48;40.97;;;28.77;;
40052;SDS011;25758;48.200;16.338;2022-10-16T14:20:25;40.17;;;31.38;;
40052;SDS011;25758;48.200;16.338;2022-10-16T14:23:00;38.85;;;28.25;;
40052;SDS011;25758;48.200;16.338;2022-10-16T14:25:31;37.45;;;29.73;;
40052;SDS011;25758;48.200;16.338;2022-10-16T14:30:35;38.70;;;28.85;;
40052;SDS011;25758;48.200;16.338;2022-10-16T14:33:02;39.30;;;29.02;;
40052;SDS011;25758;48.200;16.338;2022-10-16T14:35:32;36.95;;;27.00;;
40052;SDS011;25758;48.200;16.338;2022-10-16T14:38:03;37.58;;;29.55;;
40052;SDS011;25758;48.200;16.338;2022-10-16T14:40:31;32.45;;;27.38;;
40052;SDS011;25758;48.200;16.338;2022-10-16T14:43:02;34.97;;;29.10;;
40052;SDS011;25758;48.200;16.338;2022-10-16T14:45:30;34.80;;;29.42;;
40052;SDS011;25758;48.200;16.338;2022-10-16T14:47:58;34.72;;;27.90;;
40052;SDS011;25758;48.200;16.338;2022-10-16T14:50:28;40.20;;;27.15;;
40052;SDS011;25758;48.200;16.338;2022-10-16T14:52:54;35.15;;;26.50;;
40052;SDS011;25758;48.200;16.338;2022-10-16T14:55:20;41.92;;;31.90;;
40052;SDS011;25758;48.200;16.338;2022-10-16T14:57:46;33.90;;;27.10;;
40052;SDS011;25758;48.200;16.338;2022-10-16T15:00:17;30.40;;;25.75;;
40052;SDS011;25758;48.200;16.338;2022-10-16T15:02:45;32.08;;;26.17;;
40052;SDS011;25758;48.200;16.338;2022-10-16T15:05:26;32.13;;;25.15;;
40052;SDS011;25758;48.200;16.338;2022-10-16T15:07:53;36.13;;;25.85;;
40052;SDS011;25758;48.200;16.338;2022-10-16T15:10:20;32.53;;;26.00;;
40052;SDS011;25758;48.200;16.338;2022-10-16T15:12:48;34.45;;;26.23;;
40052;SDS011;25758;48.200;16.338;2022-10-16T15:17:51;34.03;;;25.83;;
40052;SDS011;25758;48.200;16.338;2022-10-16T15:20:20;41.70;;;29.05;;
40052;SDS011;25758;48.200;16.338;2022-10-16T15:22:46;34.00;;;25.42;;
40052;SDS011;25758;48.200;16.338;2022-10-16T15:28:04;33.78;;;24.65;;
40052;SDS011;25758;48.200;16.338;2022-10-16T15:30:32;34.38;;;24.35;;
40052;SDS011;25758;48.200;16.338;2022-10-16T15:32:58;30.73;;;23.70;;
40052;SDS011;25758;48.200;16.338;2022-10-16T15:35:23;30.75;;;23.95;;
40052;SDS011;25758;48.200;16.338;2022-10-16T15:37:49;32.22;;;23.48;;
40052;SDS011;25758;48.200;16.338;2022-10-16T15:40:16;34.35;;;24.98;;
40052;SDS011;25758;48.200;16.338;2022-10-16T15:42:43;32.70;;;25.33;;
40052;SDS011;25758;48.200;16.338;2022-10-16T15:45:09;35.05;;;24.50;;
40052;SDS011;25758;48.200;16.338;2022-10-16T15:47:36;39.28;;;27.40;;
40052;SDS011;25758;48.200;16.338;2022-10-16T15:50:02;30.50;;;24.75;;
40052;SDS011;25758;48.200;16.338;2022-10-16T15:52:28;29.08;;;25.27;;
40052;SDS011;25758;48.200;16.338;2022-10-16T15:54:56;30.88;;;25.30;;
40052;SDS011;25758;48.200;16.338;2022-10-16T15:57:22;30.65;;;24.08;;
40052;SDS011;25758;48.200;16.338;2022-10-16T15:59:49;30.25;;;23.45;;
40052;SDS011;25758;48.200;16.338;2022-10-16T16:02:15;31.33;;;24.58;;
40052;SDS011;25758;48.200;16.338;2022-10-16T16:04:41;29.15;;;23.48;;
40052;SDS011;25758;48.200;16.338;2022-10-16T16:07:06;28.67;;;23.65;;
40052;SDS011;25758;48.200;16.338;2022-10-16T16:09:32;34.45;;;23.90;;
40052;SDS011;25758;48.200;16.338;2022-10-16T16:11:58;32.05;;;23.92;;
40052;SDS011;25758;48.200;16.338;2022-10-16T16:14:26;29.88;;;24.50;;
40052;SDS011;25758;48.200;16.338;2022-10-16T16:16:55;30.88;;;23.70;;
40052;SDS011;25758;48.200;16.338;2022-10-16T16:19:21;31.25;;;23.50;;
40052;SDS011;25758;48.200;16.338;2022-10-16T16:21:47;33.55;;;23.42;;
40052;SDS011;25758;48.200;16.338;2022-10-16T16:24:14;27.77;;;23.10;;
40052;SDS011;25758;48.200;16.338;2022-10-16T16:26:40;32.47;;;24.23;;
40052;SDS011;25758;48.200;16.338;2022-10-16T16:29:08;30.23;;;22.33;;
40052;SDS011;25758;48.200;16.338;2022-10-16T16:31:39;31.83;;;23.88;;
40052;SDS011;25758;48.200;16.338;2022-10-16T16:34:06;34.58;;;21.73;;
40052;SDS011;25758;48.200;16.338;2022-10-16T16:36:32;31.88;;;23.77;;
40052;SDS011;25758;48.200;16.338;2022-10-16T16:38:58;40.63;;;24.08;;
40052;SDS011;25758;48.200;16.338;2022-10-16T16:41:28;30.70;;;22.23;;
40052;SDS011;25758;48.200;16.338;2022-10-16T16:43:55;29.85;;;23.65;;
40052;SDS011;25758;48.200;16.338;2022-10-16T16:46:26;29.98;;;22.85;;
40052;SDS011;25758;48.200;16.338;2022-10-16T16:48:52;35.15;;;22.55;;
40052;SDS011;25758;48.200;16.338;2022-10-16T16:51:20;28.63;;;23.15;;
40052;SDS011;25758;48.200;16.338;2022-10-16T16:53:50;32.50;;;23.25;;